Time;durP1;ratioP1;P1;durP2;ratioP2;P2;SDS_P1;SDS_P2;PMS_P1;PMS_P2;Temp;Humidity;BMP_temperature;BMP_pressure;BME280_temperature;BME280_humidity;BME280_pressure;Samples;Min_cycle;Max_cycle;Signal;HPM_P1;HPM_P2
2024/01/21 00:00:51;;;;;;;7.70;3.30;;;;;;;2.35;90.37;102486.78;6099734;29;20235;-69
2024/01/21 00:04:12;;;;;;;6.60;2.90;;;;;;;2.33;90.28;102487.75;6108348;29;20256;-69
2024/01/21 00:07:33;;;;;;;6.37;2.60;;;;;;;2.30;90.39;102474.53;6094165;29;20232;-68
2024/01/21 00:10:54;;;;;;;3.73;2.50;;;;;;;2.34;90.55;102478.81;6094614;29;20319;-68
2024/01/21 00:14:17;;;;;;;6.37;4.07;;;;;;;2.38;89.66;102472.50;6105311;29;20274;-68
2024/01/21 00:17:38;;;;;;;6.03;3.40;;;;;;;2.38;89.27;102469.84;6099908;29;20256;-68
2024/01/21 00:20:58;;;;;;;2.87;2.67;;;;;;;2.35;89.17;102478.81;6104430;29;20645;-70
2024/01/21 00:24:19;;;;;;;6.00;3.63;;;;;;;2.32;88.99;102462.91;6109462;29;20243;-69
2024/01/21 00:27:40;;;;;;;3.87;2.90;;;;;;;2.26;88.63;102449.81;6086746;29;20242;-69
2024/01/21 00:31:05;;;;;;;3.50;2.70;;;;;;;2.27;88.78;102456.84;6088185;29;20713;-68
2024/01/21 00:34:25;;;;;;;4.13;2.50;;;;;;;2.25;89.07;102455.19;6108941;29;20526;-69
2024/01/21 00:37:47;;;;;;;4.30;3.33;;;;;;;2.22;89.09;102453.47;6094524;29;20327;-69
2024/01/21 00:41:08;;;;;;;3.67;3.37;;;;;;;2.16;88.60;102450.13;6099800;29;20575;-68
2024/01/21 00:44:28;;;;;;;5.80;2.60;;;;;;;2.17;89.62;102430.59;6114604;29;20231;-68
2024/01/21 00:47:51;;;;;;;2.97;2.77;;;;;;;2.10;89.04;102434.34;6096120;29;20228;-69
2024/01/21 00:51:12;;;;;;;2.97;2.70;;;;;;;2.04;88.27;102434.50;6099184;29;20609;-69
2024/01/21 00:54:33;;;;;;;3.17;2.77;;;;;;;2.12;88.19;102429.84;6102447;29;20883;-69
2024/01/21 00:57:54;;;;;;;3.17;2.57;;;;;;;2.11;87.08;102422.75;6101865;29;20502;-69
2024/01/21 01:01:15;;;;;;;3.43;2.60;;;;;;;2.10;86.22;102419.25;6065437;29;20259;-70
2024/01/21 01:04:37;;;;;;;2.93;2.73;;;;;;;2.05;85.32;102417.63;6109448;29;20240;-69
2024/01/21 01:07:58;;;;;;;2.83;2.43;;;;;;;2.09;84.96;102414.84;6092468;29;20729;-69
2024/01/21 01:11:21;;;;;;;5.50;3.40;;;;;;;2.02;83.77;102412.41;6105278;29;20232;-69
2024/01/21 01:14:42;;;;;;;5.50;2.57;;;;;;;2.04;82.50;102415.91;6112180;29;20547;-69
2024/01/21 01:18:03;;;;;;;3.43;3.13;;;;;;;2.05;82.09;102414.97;6102618;29;20675;-69
2024/01/21 01:21:25;;;;;;;15.30;4.73;;;;;;;1.98;80.96;102414.28;6095015;29;20228;-69
2024/01/21 01:24:46;;;;;;;2.87;2.53;;;;;;;1.99;80.68;102417.81;6080303;29;20316;-69
2024/01/21 01:28:06;;;;;;;5.07;3.23;;;;;;;1.95;80.17;102418.81;6106053;29;20247;-66
2024/01/21 01:31:27;;;;;;;2.80;2.60;;;;;;;2.00;80.15;102411.59;6099209;29;20667;-68
2024/01/21 01:34:49;;;;;;;4.20;2.53;;;;;;;1.94;79.63;102409.09;6105082;29;20259;-69
2024/01/21 01:38:13;;;;;;;2.17;2.07;;;;;;;1.94;80.16;102411.78;6102125;29;20247;-69
2024/01/21 01:41:34;;;;;;;5.20;2.50;;;;;;;1.95;80.43;102402.84;6100857;29;20314;-69
2024/01/21 01:44:55;;;;;;;5.03;3.17;;;;;;;1.92;80.10;102387.84;6111757;29;20231;-69
2024/01/21 01:48:16;;;;;;;4.30;3.00;;;;;;;1.99;81.13;102392.09;6108473;29;20385;-69
2024/01/21 01:51:38;;;;;;;3.47;3.00;;;;;;;1.96;80.69;102388.66;6102828;29;20239;-69
2024/01/21 01:55:01;;;;;;;4.70;2.87;;;;;;;1.86;80.31;102379.19;6104817;29;20231;-70
2024/01/21 01:58:27;;;;;;;3.27;2.20;;;;;;;1.90;80.59;102380.88;6104547;29;20235;-69
2024/01/21 02:01:48;;;;;;;3.33;2.93;;;;;;;1.94;80.13;102378.06;6087177;29;20244;-69
2024/01/21 02:05:10;;;;;;;4.83;2.57;;;;;;;1.98;79.50;102378.84;6100317;29;20270;-68
2024/01/21 02:08:31;;;;;;;2.17;2.07;;;;;;;1.97;79.49;102359.38;6112371;28;20244;-69
2024/01/21 02:11:53;;;;;;;3.23;2.07;;;;;;;1.89;79.18;102349.88;6088648;29;20251;-69
2024/01/21 02:15:14;;;;;;;2.87;2.33;;;;;;;1.92;79.76;102355.09;6099592;29;20645;-69
2024/01/21 02:18:36;;;;;;;4.97;2.73;;;;;;;1.85;80.25;102364.16;6108362;28;20244;-69
2024/01/21 02:21:57;;;;;;;2.53;2.33;;;;;;;1.93;82.11;102364.81;6102018;29;20235;-70
2024/01/21 02:25:20;;;;;;;4.00;2.73;;;;;;;1.77;82.87;102360.88;6098156;29;20243;-69
2024/01/21 02:28:40;;;;;;;2.37;2.07;;;;;;;1.65;83.34;102362.06;6110871;29;20315;-69
2024/01/21 02:32:01;;;;;;;4.40;2.87;;;;;;;1.59;84.20;102370.22;6094564;29;20231;-69
2024/01/21 02:35:22;;;;;;;3.13;2.27;;;;;;;1.69;83.39;102376.16;6093121;29;20804;-69
2024/01/21 02:38:43;;;;;;;3.20;2.43;;;;;;;1.77;83.17;102360.88;6108516;29;20610;-69
2024/01/21 02:42:06;;;;;;;4.63;3.40;;;;;;;1.85;82.85;102366.81;6094661;29;20532;-68
2024/01/21 02:45:27;;;;;;;5.70;2.70;;;;;;;1.92;82.80;102355.09;6103376;29;20223;-68
2024/01/21 02:48:48;;;;;;;3.97;2.63;;;;;;;1.85;82.69;102351.75;6108670;29;20244;-68
2024/01/21 02:52:09;;;;;;;2.30;1.93;;;;;;;1.84;83.25;102346.47;6105250;29;20264;-69
2024/01/21 02:55:29;;;;;;;3.10;2.47;;;;;;;1.83;82.76;102332.31;6099785;29;20236;-69
2024/01/21 02:58:53;;;;;;;2.83;2.63;;;;;;;1.69;81.54;102325.66;6108866;29;20232;-69
2024/01/21 03:02:14;;;;;;;4.17;3.63;;;;;;;1.65;81.03;102324.00;6096243;29;20232;-69
2024/01/21 03:05:35;;;;;;;2.97;2.63;;;;;;;1.61;81.45;102321.44;6097913;29;20322;-69
2024/01/21 03:08:56;;;;;;;3.63;2.10;;;;;;;1.52;82.81;102319.03;6107907;29;20239;-68
2024/01/21 03:12:17;;;;;;;3.47;3.07;;;;;;;1.59;83.69;102317.94;6102617;29;20244;-69
2024/01/21 03:15:38;;;;;;;7.07;4.00;;;;;;;1.63;84.43;102320.53;6098134;29;20334;-69
2024/01/21 03:18:59;;;;;;;3.83;3.30;;;;;;;1.44;85.01;102310.41;6105340;29;20240;-69
2024/01/21 03:22:20;;;;;;;4.57;2.77;;;;;;;1.51;86.01;102313.75;6106078;29;20236;-69
2024/01/21 03:25:41;;;;;;;4.27;2.60;;;;;;;1.21;86.20;102310.16;6103550;29;20236;-68
2024/01/21 03:29:02;;;;;;;3.47;3.00;;;;;;;1.22;86.57;102311.03;6108617;29;21920;-69
2024/01/21 03:32:25;;;;;;;2.67;2.43;;;;;;;1.18;86.71;102301.41;6092807;29;20240;-69
2024/01/21 03:35:47;;;;;;;3.33;2.70;;;;;;;1.18;87.61;102299.66;6099904;28;20236;-69
2024/01/21 03:39:08;;;;;;;2.90;2.70;;;;;;;1.25;88.18;102287.06;6112520;29;20232;-69
2024/01/21 03:42:29;;;;;;;6.80;3.00;;;;;;;1.34;87.04;102289.44;6101495;29;20236;-69
2024/01/21 03:45:50;;;;;;;2.80;2.50;;;;;;;1.19;86.15;102285.44;6093414;29;20239;-69
2024/01/21 03:49:12;;;;;;;3.47;1.83;;;;;;;1.28;83.36;102284.31;6100962;29;20413;-69
2024/01/21 03:52:33;;;;;;;4.17;2.97;;;;;;;1.22;83.64;102289.81;6090704;29;20232;-68
2024/01/21 03:55:54;;;;;;;2.77;2.57;;;;;;;1.10;83.99;102280.41;6093358;29;20232;-68
2024/01/21 03:59:15;;;;;;;3.83;3.47;;;;;;;1.09;85.51;102272.47;6105480;29;20678;-70
2024/01/21 04:02:36;;;;;;;2.83;2.60;;;;;;;1.19;87.29;102274.81;6085501;29;22791;-68
2024/01/21 04:05:58;;;;;;;2.70;2.50;;;;;;;0.96;87.60;102282.53;6095428;29;20231;-69
2024/01/21 04:09:23;;;;;;;3.43;3.13;;;;;;;0.96;87.78;102261.28;6095780;29;20239;-69
2024/01/21 04:12:44;;;;;;;2.97;2.73;;;;;;;0.92;87.78;102264.09;6092623;29;20228;-69
2024/01/21 04:16:05;;;;;;;5.40;3.00;;;;;;;0.94;88.11;102260.47;6087108;29;20243;-69
2024/01/21 04:19:26;;;;;;;3.23;2.80;;;;;;;1.08;88.29;102244.19;6103153;28;20228;-70
2024/01/21 04:22:48;;;;;;;4.43;3.03;;;;;;;1.05;87.57;102234.50;6078343;29;20525;-69
2024/01/21 04:26:09;;;;;;;3.13;2.83;;;;;;;1.09;86.66;102238.81;6092348;29;20505;-70
2024/01/21 04:29:30;;;;;;;3.90;3.47;;;;;;;0.99;87.26;102221.41;6100916;29;20648;-68
2024/01/21 04:32:51;;;;;;;8.80;4.00;;;;;;;0.95;86.52;102217.09;6089497;29;20236;-68
2024/01/21 04:36:16;;;;;;;4.30;2.83;;;;;;;1.10;86.71;102194.56;6093359;29;20235;-69
2024/01/21 04:39:38;;;;;;;3.43;3.07;;;;;;;1.01;84.98;102189.50;6099280;29;20247;-69
2024/01/21 04:43:00;;;;;;;3.73;2.93;;;;;;;1.13;84.86;102179.41;6088657;29;20231;-69
2024/01/21 04:46:21;;;;;;;3.83;2.90;;;;;;;1.16;84.86;102175.78;6090635;29;20239;-69
2024/01/21 04:49:41;;;;;;;3.10;2.87;;;;;;;1.24;83.88;102165.81;6100519;29;20296;-69
2024/01/21 04:53:02;;;;;;;4.77;3.23;;;;;;;1.24;82.96;102165.81;6090969;29;20227;-69
2024/01/21 04:56:25;;;;;;;3.27;2.30;;;;;;;1.29;81.81;102161.25;6082875;29;20276;-68
2024/01/21 04:59:45;;;;;;;2.83;2.20;;;;;;;1.37;80.62;102152.13;6101108;29;20238;-69
2024/01/21 05:03:06;;;;;;;2.40;2.20;;;;;;;1.36;79.79;102155.69;6088762;29;20228;-69
2024/01/21 05:06:28;;;;;;;4.73;2.80;;;;;;;1.45;79.08;102159.84;6078491;29;20228;-68
2024/01/21 05:09:48;;;;;;;5.60;3.50;;;;;;;1.61;78.50;102167.31;6101638;29;20243;-69
2024/01/21 05:13:11;;;;;;;2.80;1.87;;;;;;;1.70;77.76;102171.47;6108157;29;20235;-69
2024/01/21 05:16:31;;;;;;;5.23;2.20;;;;;;;1.63;77.11;102163.75;6087576;29;20231;-69
2024/01/21 05:19:54;;;;;;;2.90;2.17;;;;;;;1.67;76.29;102147.63;6105858;29;20391;-69
2024/01/21 05:23:14;;;;;;;3.33;2.30;;;;;;;1.77;76.46;102132.28;6104858;29;20254;-69
2024/01/21 05:26:43;;;;;;;3.27;2.33;;;;;;;1.70;75.38;102128.06;6100215;29;20251;-69
2024/01/21 05:30:07;;;;;;;2.00;1.90;;;;;;;1.73;74.10;102123.53;6098650;29;20227;-68
2024/01/21 05:33:28;;;;;;;2.10;1.90;;;;;;;1.78;73.24;102126.03;6096191;29;20235;-69
2024/01/21 05:36:49;;;;;;;2.67;2.00;;;;;;;1.81;72.56;102100.25;6092401;29;20240;-69
2024/01/21 05:40:10;;;;;;;2.17;2.00;;;;;;;1.89;71.56;102094.66;6097361;29;20235;-69
2024/01/21 05:43:31;;;;;;;2.10;1.83;;;;;;;1.89;70.65;102099.97;6098060;29;20240;-69
2024/01/21 05:46:54;;;;;;;1.77;1.67;;;;;;;1.91;70.31;102072.41;6080302;29;20260;-69
2024/01/21 05:50:15;;;;;;;2.27;1.80;;;;;;;1.90;69.79;102078.66;6090489;29;20227;-69
2024/01/21 05:53:36;;;;;;;4.73;2.63;;;;;;;1.90;69.08;102056.53;6098350;29;20235;-69
2024/01/21 05:56:57;;;;;;;3.60;2.27;;;;;;;1.91;68.93;102071.53;6091163;28;20231;-69
2024/01/21 06:00:18;;;;;;;2.50;2.30;;;;;;;1.95;68.65;102063.41;6053087;28;20574;-69
2024/01/21 06:03:40;;;;;;;2.97;2.00;;;;;;;1.96;68.17;102057.16;6097755;29;20543;-68
2024/01/21 06:07:01;;;;;;;4.97;1.67;;;;;;;2.00;67.60;102057.94;6102424;29;20263;-69
2024/01/21 06:10:22;;;;;;;2.03;1.90;;;;;;;2.02;66.08;102050.78;6103979;29;20509;-69
2024/01/21 06:13:43;;;;;;;1.60;1.50;;;;;;;1.99;66.46;102051.75;6115158;29;20243;-70
2024/01/21 06:17:04;;;;;;;3.00;1.60;;;;;;;1.97;66.19;102044.75;6094324;29;20406;-69
2024/01/21 06:20:26;;;;;;;2.90;2.67;;;;;;;2.00;67.13;102034.84;6104965;29;20239;-68
2024/01/21 06:23:47;;;;;;;2.40;2.23;;;;;;;1.89;66.50;102029.06;6104062;29;20515;-69
2024/01/21 06:27:08;;;;;;;1.77;1.67;;;;;;;1.92;66.84;102020.13;6105903;29;20247;-69
2024/01/21 06:30:29;;;;;;;2.00;1.70;;;;;;;1.89;66.79;102013.13;6098541;29;20243;-69
2024/01/21 06:33:50;;;;;;;1.90;1.37;;;;;;;1.89;66.98;102010.47;6106721;29;20258;-69
2024/01/21 06:37:12;;;;;;;3.20;1.90;;;;;;;1.92;67.15;102004.19;6107357;29;20251;-68
2024/01/21 06:40:33;;;;;;;5.23;2.53;;;;;;;1.90;67.41;102001.56;6105119;29;20751;-69
2024/01/21 06:43:54;;;;;;;1.53;1.43;;;;;;;1.85;66.81;101992.88;6104556;29;20228;-69
2024/01/21 06:47:16;;;;;;;5.50;2.40;;;;;;;1.85;66.81;101997.31;6084708;29;20239;-68
2024/01/21 06:50:37;;;;;;;2.43;1.73;;;;;;;1.89;67.00;102004.28;6093316;28;20244;-68
2024/01/21 06:54:00;;;;;;;1.90;1.80;;;;;;;1.91;66.15;101976.72;6103029;29;20227;-69
2024/01/21 06:57:21;;;;;;;1.93;1.83;;;;;;;1.95;66.07;101978.34;6093326;29;20526;-69
2024/01/21 07:00:42;;;;;;;1.67;1.57;;;;;;;1.92;65.50;101980.25;6091491;28;20239;-70
2024/01/21 07:04:03;;;;;;;2.77;2.20;;;;;;;1.98;65.99;101982.69;6094982;28;20235;-68
2024/01/21 07:07:24;;;;;;;1.20;1.17;;;;;;;1.95;64.93;101978.34;6095877;29;20326;-67
2024/01/21 07:10:47;;;;;;;1.90;1.60;;;;;;;1.97;64.52;101970.31;6096093;29;20331;-68
2024/01/21 07:14:08;;;;;;;1.77;1.50;;;;;;;1.97;63.97;101967.66;6105506;29;20232;-69
2024/01/21 07:17:29;;;;;;;1.20;1.10;;;;;;;1.97;64.27;101979.16;6093847;29;20232;-69
2024/01/21 07:20:50;;;;;;;2.90;2.70;;;;;;;2.00;63.91;101973.72;6098350;29;21166;-69
2024/01/21 07:24:11;;;;;;;1.87;1.50;;;;;;;2.04;63.81;101961.19;6104550;29;20334;-69
2024/01/21 07:27:34;;;;;;;1.60;1.50;;;;;;;2.08;63.02;101955.72;6096915;29;20267;-69
2024/01/21 07:30:55;;;;;;;3.37;2.10;;;;;;;2.11;63.16;101949.38;6089132;29;20252;-69
2024/01/21 07:34:16;;;;;;;2.67;1.53;;;;;;;2.11;62.87;101944.06;6101874;29;20320;-69
2024/01/21 07:37:37;;;;;;;2.77;1.90;;;;;;;2.06;62.18;101925.66;6093690;29;20619;-69
2024/01/21 07:40:57;;;;;;;2.67;1.90;;;;;;;2.16;62.05;101915.53;6094090;29;20256;-69
2024/01/21 07:44:20;;;;;;;1.17;1.17;;;;;;;2.15;62.26;101900.50;6105438;29;20231;-68
2024/01/21 07:47:41;;;;;;;1.90;1.70;;;;;;;2.08;61.58;101929.13;6082351;29;20232;-69
2024/01/21 07:51:02;;;;;;;1.93;1.80;;;;;;;2.12;61.16;101913.91;6095687;29;20231;-69
2024/01/21 07:54:23;;;;;;;1.50;1.40;;;;;;;2.20;61.79;101901.19;6102101;29;20232;-70
2024/01/21 07:57:44;;;;;;;2.27;1.73;;;;;;;2.20;60.96;101895.88;6096625;29;20615;-68
2024/01/21 08:01:10;;;;;;;2.60;2.40;;;;;;;2.29;61.69;101893.75;6090526;28;20265;-69
2024/01/21 08:04:31;;;;;;;2.87;1.53;;;;;;;2.24;59.88;101905.47;6097517;28;20236;-68
2024/01/21 08:07:52;;;;;;;2.30;2.03;;;;;;;2.28;60.36;101913.28;6091959;29;20236;-69
2024/01/21 08:11:13;;;;;;;1.30;1.10;;;;;;;2.21;59.91;101863.88;6093596;29;20224;-69
2024/01/21 08:14:33;;;;;;;2.33;2.23;;;;;;;2.28;59.88;101868.06;6106259;29;20235;-69
2024/01/21 08:17:56;;;;;;;3.33;1.97;;;;;;;2.31;60.21;101859.09;6088473;29;20331;-70
2024/01/21 08:21:17;;;;;;;1.90;1.40;;;;;;;2.33;60.44;101844.81;6092402;29;20545;-69
2024/01/21 08:24:38;;;;;;;2.10;2.00;;;;;;;2.38;59.93;101856.13;6110100;29;20252;-68
2024/01/21 08:27:59;;;;;;;3.37;1.97;;;;;;;2.37;60.41;101832.25;6103947;29;20231;-68
2024/01/21 08:31:20;;;;;;;2.30;1.20;;;;;;;2.36;60.12;101806.56;6072657;29;20232;-69
2024/01/21 08:34:43;;;;;;;3.93;1.57;;;;;;;2.44;60.46;101796.50;6113775;29;20231;-69
2024/01/21 08:38:04;;;;;;;1.50;1.40;;;;;;;2.46;60.44;101791.09;6108856;29;20236;-69
2024/01/21 08:41:25;;;;;;;3.03;1.90;;;;;;;2.50;60.62;101790.06;6105548;28;20223;-73
2024/01/21 08:44:46;;;;;;;8.50;2.97;;;;;;;2.54;60.64;101751.75;6113312;28;20231;-69
2024/01/21 08:48:07;;;;;;;4.23;2.27;;;;;;;2.53;60.27;101742.88;6099994;29;20232;-72
2024/01/21 08:51:30;;;;;;;2.90;1.70;;;;;;;2.59;59.68;101755.94;6098497;29;20228;-70
2024/01/21 08:54:51;;;;;;;3.57;2.40;;;;;;;2.70;60.38;101800.72;6101548;29;20232;-70
2024/01/21 08:58:12;;;;;;;2.33;2.13;;;;;;;2.79;58.68;101792.38;6107891;29;20244;-69
2024/01/21 09:01:34;;;;;;;4.87;2.23;;;;;;;2.86;58.36;101807.13;6110209;28;20239;-70
2024/01/21 09:04:56;;;;;;;8.93;3.10;;;;;;;2.91;58.15;101811.34;6114710;28;20235;-70
2024/01/21 09:08:18;;;;;;;8.10;1.93;;;;;;;2.98;55.82;101794.16;6115246;28;20236;-69
2024/01/21 09:11:39;;;;;;;3.23;1.70;;;;;;;3.01;55.48;101778.06;6113519;29;20228;-69
2024/01/21 09:15:00;;;;;;;3.13;2.70;;;;;;;3.03;55.66;101762.91;6111613;28;20243;-69
2024/01/21 09:18:22;;;;;;;3.33;2.00;;;;;;;3.08;55.35;101749.38;6109359;29;20734;-70
2024/01/21 09:21:42;;;;;;;2.57;1.43;;;;;;;3.33;52.38;101770.47;6106677;29;20231;-71
2024/01/21 09:25:05;;;;;;;1.90;1.77;;;;;;;3.61;49.09;101762.97;6107245;29;20244;-70
2024/01/21 09:28:26;;;;;;;3.77;2.77;;;;;;;3.54;48.92;101721.53;6091931;29;20310;-69
2024/01/21 09:31:53;;;;;;;2.47;1.77;;;;;;;3.54;49.17;101717.06;6094171;29;20227;-70
2024/01/21 09:35:14;;;;;;;1.87;1.40;;;;;;;3.72;47.72;101742.84;6107446;29;20259;-70
2024/01/21 09:38:35;;;;;;;1.70;1.57;;;;;;;3.70;47.52;101779.41;6114246;29;20236;-70
2024/01/21 09:41:59;;;;;;;2.60;1.70;;;;;;;3.81;46.53;101765.56;6111778;29;20263;-70
2024/01/21 09:45:22;;;;;;;2.10;1.90;;;;;;;3.79;47.19;101765.66;6102331;29;20244;-69
2024/01/21 09:48:43;;;;;;;3.80;2.40;;;;;;;3.87;46.57;101773.28;6111129;29;20247;-71
2024/01/21 09:52:05;;;;;;;2.70;1.30;;;;;;;3.82;47.36;101776.16;6103151;29;20970;-69
2024/01/21 09:55:27;;;;;;;1.80;1.33;;;;;;;3.79;47.54;101781.66;6118428;29;20306;-69
2024/01/21 09:58:51;;;;;;;3.07;2.00;;;;;;;3.88;47.32;101788.34;6111511;28;20240;-70
2024/01/21 10:02:16;;;;;;;3.20;2.30;;;;;;;3.85;47.43;101792.03;6100176;28;20683;-70
2024/01/21 10:05:37;;;;;;;2.67;2.10;;;;;;;3.82;48.55;101799.28;6105061;28;20240;-68
2024/01/21 10:09:11;;;;;;;3.03;2.17;;;;;;;3.77;47.99;101787.97;6112734;29;20275;-70
2024/01/21 10:12:34;;;;;;;4.63;1.83;;;;;;;3.79;48.31;101775.44;6103796;29;20236;-69
2024/01/21 10:15:57;;;;;;;1.67;1.37;;;;;;;4.12;53.49;101760.50;6093239;29;20235;-68
2024/01/21 10:19:25;;;;;;;3.90;1.50;;;;;;;3.97;51.53;101739.91;6114157;29;20235;-66
2024/01/21 10:22:48;;;;;;;45.83;28.33;;;;;;;4.52;57.47;101748.75;6114556;29;20247;-67
2024/01/21 10:26:09;;;;;;;13.73;12.20;;;;;;;4.77;56.71;101738.56;6102322;29;20236;-70
2024/01/21 10:29:32;;;;;;;256.23;115.90;;;;;;;4.90;55.23;101736.13;6121093;29;20234;-66
2024/01/21 10:32:54;;;;;;;22.10;6.27;;;;;;;4.68;51.52;101723.88;6102589;29;20231;-67
2024/01/21 10:36:15;;;;;;;3.20;2.20;;;;;;;4.69;52.34;101738.09;6107103;29;20232;-67
2024/01/21 10:39:37;;;;;;;24.10;21.90;;;;;;;4.94;56.97;101719.88;6113397;29;20235;-66
2024/01/21 10:43:00;;;;;;;4.80;4.17;;;;;;;4.59;49.66;101729.66;6110664;29;20527;-68
2024/01/21 10:46:22;;;;;;;2.87;2.17;;;;;;;4.28;49.59;101753.47;6107172;29;20542;-67
2024/01/21 10:49:45;;;;;;;2.60;2.00;;;;;;;4.30;49.93;101724.91;6119229;29;20330;-68
2024/01/21 10:53:07;;;;;;;4.13;2.83;;;;;;;4.23;50.19;101742.19;6113123;29;20243;-68
2024/01/21 10:56:28;;;;;;;2.33;2.10;;;;;;;4.23;50.44;101725.31;6109663;29;20315;-68
2024/01/21 10:59:49;;;;;;;5.27;2.40;;;;;;;4.25;50.45;101712.75;6116032;29;20237;-67
2024/01/21 11:03:24;;;;;;;2.60;2.40;;;;;;;4.28;50.92;101705.44;6114333;29;20240;-67
2024/01/21 11:06:48;;;;;;;1.50;1.40;;;;;;;4.31;50.52;101696.44;6112010;28;20236;-68
2024/01/21 11:10:10;;;;;;;3.27;2.67;;;;;;;4.33;50.98;101686.53;6113368;29;20232;-68
2024/01/21 11:13:41;;;;;;;2.30;1.77;;;;;;;4.33;51.96;101676.75;6113381;28;20231;-68
2024/01/21 11:17:03;;;;;;;3.17;2.47;;;;;;;4.40;52.25;101667.47;6101164;28;20236;-70
2024/01/21 11:20:26;;;;;;;6.00;1.83;;;;;;;4.39;51.59;101660.41;6112411;29;20236;-69
2024/01/21 11:23:59;;;;;;;2.80;2.60;;;;;;;4.37;52.72;101664.09;6110496;28;20235;-69
2024/01/21 11:27:21;;;;;;;4.80;2.60;;;;;;;4.35;52.75;101682.88;6103474;28;20231;-69
2024/01/21 11:30:41;;;;;;;2.30;2.17;;;;;;;4.35;53.55;101674.84;6098580;29;20240;-68
2024/01/21 11:34:06;;;;;;;5.80;3.30;;;;;;;4.42;54.01;101675.41;6108150;29;20224;-68
2024/01/21 11:37:29;;;;;;;1.87;1.73;;;;;;;4.41;54.41;101671.00;6099398;29;20232;-67
2024/01/21 11:41:02;;;;;;;3.97;2.20;;;;;;;4.46;53.81;101685.88;6097534;29;20322;-67
2024/01/21 11:44:25;;;;;;;2.50;1.93;;;;;;;4.47;54.66;101690.25;6104391;29;20267;-68
2024/01/21 11:47:46;;;;;;;2.17;2.00;;;;;;;4.54;54.68;101685.47;6092429;29;20236;-69
2024/01/21 11:51:07;;;;;;;3.23;2.93;;;;;;;4.54;55.54;101686.34;6108795;29;20392;-68
2024/01/21 11:54:30;;;;;;;2.37;2.07;;;;;;;4.60;55.29;101682.47;6115064;29;20243;-68
2024/01/21 11:57:53;;;;;;;5.17;2.40;;;;;;;4.61;56.20;101671.72;6082541;29;20228;-68
2024/01/21 12:01:15;;;;;;;1.93;1.83;;;;;;;4.62;57.95;101678.78;6086316;29;20248;-68
2024/01/21 12:04:37;;;;;;;4.33;3.13;;;;;;;4.64;58.67;101679.59;6100450;29;20318;-68
2024/01/21 12:08:00;;;;;;;5.00;2.67;;;;;;;4.71;60.21;101688.16;6102426;28;20231;-67
2024/01/21 12:11:21;;;;;;;4.57;2.30;;;;;;;4.75;62.18;101687.03;6100067;28;20512;-68
2024/01/21 12:14:43;;;;;;;4.13;2.30;;;;;;;4.88;63.41;101680.97;6115929;29;20785;-68
2024/01/21 12:18:05;;;;;;;2.93;2.73;;;;;;;4.89;64.11;101679.16;6104252;29;20240;-69
2024/01/21 12:21:28;;;;;;;4.50;2.00;;;;;;;4.88;65.49;101667.59;6096303;29;20235;-67
2024/01/21 12:24:48;;;;;;;2.13;1.77;;;;;;;4.92;65.60;101665.66;6109664;28;20228;-68
2024/01/21 12:28:09;;;;;;;4.07;2.53;;;;;;;4.94;65.85;101669.13;6109562;29;20239;-68
2024/01/21 12:31:33;;;;;;;2.30;2.10;;;;;;;5.00;66.10;101650.09;6098718;29;20507;-67
2024/01/21 12:34:54;;;;;;;4.17;2.80;;;;;;;5.00;66.57;101657.22;6112554;28;20600;-68
2024/01/21 12:38:16;;;;;;;3.33;2.97;;;;;;;4.97;66.64;101638.69;6103013;28;20319;-69
2024/01/21 12:41:36;;;;;;;2.77;2.57;;;;;;;4.98;66.68;101643.97;6092236;29;20239;-68
2024/01/21 12:44:59;;;;;;;3.23;2.90;;;;;;;4.93;67.42;101655.81;6100420;29;20231;-68
2024/01/21 12:48:22;;;;;;;3.40;2.70;;;;;;;4.95;67.73;101664.59;6095215;29;20997;-70
2024/01/21 12:51:44;;;;;;;3.87;2.87;;;;;;;5.00;68.45;101649.22;6067558;29;20236;-69
2024/01/21 12:55:06;;;;;;;2.73;2.53;;;;;;;4.97;68.95;101636.00;6090772;29;20606;-69
2024/01/21 12:58:27;;;;;;;2.73;2.40;;;;;;;5.00;69.71;101638.53;6088226;28;20236;-72
2024/01/21 13:01:48;;;;;;;3.40;3.20;;;;;;;5.01;70.56;101643.78;6083610;29;20271;-69
2024/01/21 13:05:10;;;;;;;3.03;2.43;;;;;;;4.99;71.11;101634.13;6084414;29;20240;-69
2024/01/21 13:08:31;;;;;;;2.37;2.00;;;;;;;5.04;71.80;101629.41;6104092;28;20232;-69
2024/01/21 13:11:52;;;;;;;3.43;3.03;;;;;;;5.04;72.30;101635.63;6098639;28;20243;-69
2024/01/21 13:15:13;;;;;;;2.90;2.63;;;;;;;5.11;72.57;101628.97;6104231;29;20594;-68
2024/01/21 13:18:34;;;;;;;5.83;3.87;;;;;;;5.12;72.99;101630.72;6112066;29;20227;-68
2024/01/21 13:21:56;;;;;;;4.37;2.87;;;;;;;5.10;73.37;101611.22;6101318;29;20729;-69
2024/01/21 13:25:20;;;;;;;2.77;2.33;;;;;;;5.07;74.66;101610.53;6091997;29;20712;-69
2024/01/21 13:30:43;;;;;;;3.73;2.67;;;;;;;5.12;74.73;101614.69;6114079;29;20251;-69
2024/01/21 13:32:21;;;;;;;2.53;2.33;;;;;;;5.07;75.96;101627.41;6103244;29;20255;-69
2024/01/21 13:35:43;;;;;;;3.40;3.10;;;;;;;5.10;77.56;101610.34;6112319;29;20251;-69
2024/01/21 13:39:05;;;;;;;2.73;2.53;;;;;;;5.07;79.07;101635.44;6112038;29;20224;-68
2024/01/21 13:42:26;;;;;;;2.80;2.57;;;;;;;5.04;79.65;101624.94;6108870;29;21155;-69
2024/01/21 13:45:47;;;;;;;3.50;2.70;;;;;;;5.04;80.80;101635.63;6100397;29;20255;-69
2024/01/21 13:49:08;;;;;;;2.80;2.27;;;;;;;5.00;81.81;101642.06;6104676;28;20682;-69
2024/01/21 13:52:29;;;;;;;5.10;3.93;;;;;;;5.00;81.46;101638.53;6113495;29;20227;-69
2024/01/21 13:55:51;;;;;;;2.87;2.67;;;;;;;4.99;82.05;101651.00;6096845;29;20259;-70
2024/01/21 13:59:12;;;;;;;3.43;2.67;;;;;;;5.00;83.30;101654.56;6109526;29;20603;-70
2024/01/21 14:02:33;;;;;;;3.37;3.07;;;;;;;4.98;83.85;101643.09;6110881;29;20239;-67
2024/01/21 14:05:55;;;;;;;3.23;2.93;;;;;;;5.01;84.91;101648.25;6108337;29;20563;-68
2024/01/21 14:09:15;;;;;;;5.53;3.63;;;;;;;4.98;85.87;101638.63;6114708;29;20264;-69
2024/01/21 14:12:38;;;;;;;3.10;2.80;;;;;;;4.96;86.79;101648.53;6112388;29;20232;-68
2024/01/21 14:15:59;;;;;;;4.40;3.23;;;;;;;4.97;86.99;101655.56;6108894;29;20235;-68
2024/01/21 14:19:19;;;;;;;4.40;3.20;;;;;;;4.97;87.95;101647.56;6122006;29;20239;-69
2024/01/21 14:22:42;;;;;;;3.10;2.90;;;;;;;5.02;88.77;101644.66;6093603;29;20231;-69
2024/01/21 14:26:07;;;;;;;3.97;3.27;;;;;;;4.97;89.97;101660.91;6112123;29;20247;-69
2024/01/21 14:29:32;;;;;;;2.80;2.60;;;;;;;4.98;91.03;101664.47;6099046;29;20318;-70
2024/01/21 14:32:53;;;;;;;4.33;3.97;;;;;;;4.99;92.29;101655.47;6085025;29;20240;-69
2024/01/21 14:36:14;;;;;;;4.93;3.67;;;;;;;4.98;94.25;101653.78;6090896;29;20637;-69
2024/01/21 14:39:35;;;;;;;3.40;2.40;;;;;;;5.00;96.06;101649.22;6104088;28;20241;-68
2024/01/21 14:42:57;;;;;;;3.07;2.83;;;;;;;5.02;97.40;101647.31;6087773;29;20279;-68
2024/01/21 14:46:20;;;;;;;4.60;3.23;;;;;;;4.98;99.23;101649.31;6087199;29;20357;-68
2024/01/21 14:49:41;;;;;;;4.53;3.27;;;;;;;4.97;100.00;101652.03;6100548;29;21593;-69
2024/01/21 14:53:02;;;;;;;5.23;3.77;;;;;;;4.97;100.00;101644.88;6088287;29;20240;-69
2024/01/21 14:56:24;;;;;;;7.47;4.40;;;;;;;4.93;100.00;101662.03;6088446;29;22987;-69
2024/01/21 14:59:45;;;;;;;3.40;3.10;;;;;;;4.92;100.00;101659.44;6092560;29;20236;-69
2024/01/21 15:03:07;;;;;;;4.00;2.83;;;;;;;4.95;100.00;101653.94;6085383;29;20619;-68
2024/01/21 15:06:30;;;;;;;4.90;3.30;;;;;;;4.91;100.00;101660.38;6088609;29;20331;-68
2024/01/21 15:09:51;;;;;;;4.07;3.67;;;;;;;4.90;100.00;101664.00;6097123;29;20738;-68
2024/01/21 15:13:19;;;;;;;3.30;3.10;;;;;;;4.88;100.00;101680.13;6102072;29;20255;-68
2024/01/21 15:16:40;;;;;;;4.70;4.00;;;;;;;4.85;100.00;101643.75;6107941;29;20236;-68
2024/01/21 15:20:02;;;;;;;4.93;4.53;;;;;;;4.94;100.00;101650.41;6104306;29;20260;-68
2024/01/21 15:23:23;;;;;;;4.10;3.60;;;;;;;4.93;100.00;101643.34;6112172;29;20235;-68
2024/01/21 15:26:44;;;;;;;5.33;4.60;;;;;;;4.91;100.00;101655.91;6092886;29;20243;-67
2024/01/21 15:30:06;;;;;;;4.77;4.03;;;;;;;4.90;100.00;101643.50;6092438;29;20232;-68
2024/01/21 15:33:27;;;;;;;6.00;4.73;;;;;;;4.86;100.00;101666.81;6087352;29;20235;-68
2024/01/21 15:36:49;;;;;;;6.77;4.23;;;;;;;4.84;100.00;101665.16;6087350;29;20248;-68
2024/01/21 15:40:11;;;;;;;6.20;4.40;;;;;;;4.85;100.00;101662.44;6092442;29;20239;-68
2024/01/21 15:43:31;;;;;;;3.73;3.27;;;;;;;4.81;100.00;101650.19;6093120;29;20260;-69
2024/01/21 15:46:52;;;;;;;5.70;4.67;;;;;;;4.82;100.00;101649.25;6085848;29;21066;-69